Time;durP1;ratioP1;P1;durP2;ratioP2;P2;SDS_P1;SDS_P2;PMS_P1;PMS_P2;Temp;Humidity;BMP_temperature;BMP_pressure;BME280_temperature;BME280_humidity;BME280_pressure;Samples;Min_cycle;Max_cycle;Signal;HPM_P1;HPM_P2
2021/08/07 00:02:08;;;;;;;8.30;6.27;;;17.20;99.90;;;;;;5075652;28;20511;-51
2021/08/07 00:04:37;;;;;;;6.67;5.90;;;17.10;99.90;;;;;;5077502;28;20832;-52
2021/08/07 00:07:05;;;;;;;6.33;5.53;;;17.10;99.90;;;;;;5059311;28;20476;-52
2021/08/07 00:09:32;;;;;;;9.43;5.53;;;17.30;99.90;;;;;;5064154;28;20447;-50
2021/08/07 00:11:59;;;;;;;6.80;5.37;;;17.50;99.90;;;;;;5076949;28;20470;-52
2021/08/07 00:14:28;;;;;;;6.37;4.90;;;17.50;99.90;;;;;;5077264;28;20990;-51
2021/08/07 00:16:55;;;;;;;8.37;5.80;;;17.50;99.90;;;;;;5076740;28;20525;-52
2021/08/07 00:19:22;;;;;;;4.90;4.40;;;17.40;99.90;;;;;;5077385;28;20454;-52
2021/08/07 00:21:49;;;;;;;5.70;4.60;;;17.40;99.90;;;;;;5077049;28;20466;-50
2021/08/07 00:24:17;;;;;;;4.80;4.30;;;17.50;99.90;;;;;;5076980;28;20446;-51
2021/08/07 00:26:44;;;;;;;5.10;4.60;;;17.60;99.90;;;;;;5074908;28;20744;-51
2021/08/07 00:29:11;;;;;;;6.63;4.87;;;17.70;99.90;;;;;;5065035;28;20593;-52
2021/08/07 00:31:40;;;;;;;5.60;4.97;;;17.70;99.90;;;;;;5060921;28;20466;-52
2021/08/07 00:34:07;;;;;;;8.60;6.03;;;17.60;99.90;;;;;;5066605;28;20468;-52
2021/08/07 00:36:34;;;;;;;5.17;4.70;;;17.50;99.90;;;;;;5062264;28;20997;-51
2021/08/07 00:39:01;;;;;;;6.47;5.27;;;17.50;99.90;;;;;;5059421;28;20563;-51
2021/08/07 00:41:28;;;;;;;6.60;5.50;;;17.50;99.90;;;;;;5073169;28;20528;-51
2021/08/07 00:43:55;;;;;;;5.93;5.33;;;17.50;99.90;;;;;;5065196;28;20443;-52
2021/08/07 00:46:22;;;;;;;8.17;5.80;;;17.60;99.90;;;;;;5070282;28;20483;-52
2021/08/07 00:48:51;;;;;;;8.20;5.63;;;17.50;99.90;;;;;;5067993;28;20444;-51
2021/08/07 00:51:19;;;;;;;5.30;4.80;;;17.50;99.90;;;;;;5057640;28;20478;-52
2021/08/07 00:53:46;;;;;;;6.03;5.47;;;17.50;99.90;;;;;;5055826;28;20989;-51
2021/08/07 00:56:14;;;;;;;5.60;4.87;;;17.40;99.90;;;;;;5059592;28;20474;-52
2021/08/07 00:58:41;;;;;;;6.93;5.23;;;17.40;99.90;;;;;;5064670;28;20546;-51
2021/08/07 01:01:12;;;;;;;7.80;6.20;;;17.40;99.90;;;;;;5061573;28;20956;-52
2021/08/07 01:03:56;;;;;;;7.60;6.10;;;17.30;99.90;;;;;;5066929;28;20462;-52
2021/08/07 01:06:33;;;;;;;8.40;5.50;;;17.20;99.90;;;;;;5053151;28;20475;-52
2021/08/07 01:09:07;;;;;;;8.43;5.47;;;17.30;99.90;;;;;;5062882;28;20438;-52
2021/08/07 01:11:43;;;;;;;5.43;4.87;;;17.30;99.90;;;;;;5073139;28;20541;-51
2021/08/07 01:14:12;;;;;;;7.27;5.20;;;17.30;99.90;;;;;;5067546;28;20450;-52
2021/08/07 01:16:43;;;;;;;5.73;5.13;;;17.30;99.90;;;;;;5062189;28;20451;-51
2021/08/07 01:19:21;;;;;;;6.80;4.73;;;17.30;99.90;;;;;;5071197;28;20941;-51
2021/08/07 01:21:54;;;;;;;7.20;5.57;;;17.30;99.90;;;;;;5061721;28;20439;-50
2021/08/07 01:24:24;;;;;;;7.27;5.47;;;17.20;99.90;;;;;;5072974;28;20447;-52
2021/08/07 01:27:08;;;;;;;5.37;4.97;;;17.20;99.90;;;;;;5061199;28;20483;-51
2021/08/07 01:29:35;;;;;;;8.23;6.47;;;17.30;99.90;;;;;;5069246;28;20966;-51
2021/08/07 01:32:03;;;;;;;8.27;6.80;;;17.20;99.90;;;;;;5070262;28;20491;-52
2021/08/07 01:34:30;;;;;;;8.73;6.27;;;17.20;99.90;;;;;;5072691;28;20820;-51
2021/08/07 01:36:58;;;;;;;8.07;6.70;;;17.10;99.90;;;;;;5072606;28;20454;-51
2021/08/07 01:39:25;;;;;;;10.60;7.20;;;17.10;99.90;;;;;;5072628;28;20443;-51
2021/08/07 01:41:52;;;;;;;11.43;6.73;;;17.10;99.90;;;;;;5068827;28;20475;-51
2021/08/07 01:44:20;;;;;;;9.00;6.90;;;17.10;99.90;;;;;;5067874;28;20446;-51
2021/08/07 01:46:55;;;;;;;7.30;6.00;;;17.10;99.90;;;;;;5072520;28;20485;-51
2021/08/07 01:49:30;;;;;;;9.60;7.00;;;17.10;99.90;;;;;;5072271;28;20508;-52
2021/08/07 01:52:01;;;;;;;6.93;6.23;;;17.10;99.90;;;;;;5072190;28;20473;-51
2021/08/07 01:54:32;;;;;;;8.60;5.90;;;17.10;99.90;;;;;;5072338;28;20804;-51
2021/08/07 01:57:03;;;;;;;7.63;6.17;;;17.10;99.90;;;;;;5072421;28;20455;-52
2021/08/07 01:59:34;;;;;;;8.40;6.67;;;17.10;99.90;;;;;;5072385;28;20451;-52
2021/08/07 02:02:02;;;;;;;5.60;5.07;;;17.20;99.90;;;;;;5071925;28;20532;-52
2021/08/07 02:04:29;;;;;;;6.93;6.13;;;17.10;99.90;;;;;;5071989;28;20454;-51
2021/08/07 02:06:58;;;;;;;5.80;5.10;;;17.20;99.90;;;;;;5072013;28;21003;-51
2021/08/07 02:09:26;;;;;;;8.07;6.47;;;17.10;99.90;;;;;;5072099;28;21058;-51
2021/08/07 02:11:55;;;;;;;6.83;6.13;;;17.10;99.90;;;;;;5067174;28;20985;-51
2021/08/07 02:14:24;;;;;;;7.07;5.87;;;17.10;99.90;;;;;;5061601;28;20452;-52
2021/08/07 02:16:53;;;;;;;9.53;7.00;;;17.00;99.90;;;;;;5052266;28;20960;-52
2021/08/07 02:19:20;;;;;;;7.53;6.40;;;16.90;99.90;;;;;;5052234;28;20459;-51
2021/08/07 02:21:47;;;;;;;6.87;5.60;;;16.90;99.90;;;;;;5069960;28;20451;-51
2021/08/07 02:24:15;;;;;;;6.60;5.90;;;16.90;99.90;;;;;;5071493;28;20446;-52
2021/08/07 02:26:43;;;;;;;6.50;5.37;;;16.90;99.90;;;;;;5068724;28;20455;-51
2021/08/07 02:29:10;;;;;;;8.00;5.40;;;16.90;99.90;;;;;;5051782;28;20497;-53
2021/08/07 02:31:40;;;;;;;8.00;5.90;;;16.70;99.90;;;;;;5055363;28;20447;-51
2021/08/07 02:34:09;;;;;;;7.53;5.70;;;16.70;99.90;;;;;;5071625;28;20442;-50
2021/08/07 02:36:36;;;;;;;7.13;5.77;;;16.70;99.90;;;;;;5071611;28;20443;-52
2021/08/07 02:39:04;;;;;;;8.50;6.70;;;16.80;99.90;;;;;;5071669;28;20887;-51
2021/08/07 02:41:32;;;;;;;9.13;7.00;;;16.70;99.90;;;;;;5071317;28;20472;-51
2021/08/07 02:44:00;;;;;;;8.10;5.70;;;16.80;99.90;;;;;;5071345;28;20455;-52
2021/08/07 02:46:29;;;;;;;6.17;5.30;;;16.80;99.90;;;;;;5062655;28;20454;-52
2021/08/07 02:48:57;;;;;;;6.77;5.73;;;16.80;99.90;;;;;;5051531;28;20491;-51
2021/08/07 02:51:25;;;;;;;7.37;4.87;;;16.80;99.90;;;;;;5051467;28;20513;-52
2021/08/07 02:53:53;;;;;;;6.17;5.57;;;16.80;99.90;;;;;;5050770;28;20503;-51
2021/08/07 02:56:20;;;;;;;8.80;5.67;;;16.90;99.90;;;;;;5051452;28;20450;-51
2021/08/07 02:58:48;;;;;;;6.03;5.30;;;16.90;99.90;;;;;;5051374;28;20456;-52
2021/08/07 03:01:15;;;;;;;6.90;6.13;;;16.90;99.90;;;;;;5051502;28;20452;-51
2021/08/07 03:03:42;;;;;;;7.90;6.60;;;16.80;99.90;;;;;;5052059;28;20828;-51
2021/08/07 03:06:09;;;;;;;8.63;6.70;;;16.70;99.90;;;;;;5051386;28;20558;-51
2021/08/07 03:08:37;;;;;;;10.47;6.80;;;16.60;99.90;;;;;;5051109;28;20487;-51
2021/08/07 03:11:04;;;;;;;6.53;5.47;;;16.60;99.90;;;;;;5051165;28;20922;-51
2021/08/07 03:13:32;;;;;;;8.00;5.53;;;16.60;99.90;;;;;;5051142;28;20468;-51
2021/08/07 03:16:01;;;;;;;5.60;4.83;;;16.70;99.90;;;;;;5051333;28;20460;-51
2021/08/07 03:18:28;;;;;;;9.53;5.87;;;16.60;99.90;;;;;;5051296;28;20451;-51
2021/08/07 03:20:57;;;;;;;5.83;5.17;;;16.60;99.90;;;;;;5052499;28;20970;-51
2021/08/07 03:23:25;;;;;;;8.80;6.23;;;16.50;99.90;;;;;;5050912;28;20884;-51
2021/08/07 03:25:53;;;;;;;6.60;5.40;;;16.50;99.90;;;;;;5051200;28;20805;-51
2021/08/07 03:28:20;;;;;;;5.90;5.30;;;16.40;99.90;;;;;;5067214;28;20479;-50
2021/08/07 03:30:47;;;;;;;6.77;5.00;;;16.40;99.90;;;;;;5070603;28;20469;-51
2021/08/07 03:33:16;;;;;;;9.20;5.57;;;16.40;99.90;;;;;;5096789;22;20486;-51
2021/08/07 03:35:43;;;;;;;7.00;5.40;;;16.60;99.90;;;;;;5077035;28;20447;-53
2021/08/07 03:38:10;;;;;;;6.60;5.10;;;16.50;99.90;;;;;;5071507;28;20875;-50
2021/08/07 03:40:37;;;;;;;7.73;5.10;;;16.50;99.90;;;;;;5071190;28;20439;-50
2021/08/07 03:43:05;;;;;;;5.33;4.83;;;16.40;99.90;;;;;;5071285;28;20524;-50
2021/08/07 03:45:32;;;;;;;6.13;4.83;;;16.30;99.90;;;;;;5071298;28;20443;-49
2021/08/07 03:48:00;;;;;;;6.23;4.67;;;16.40;99.90;;;;;;5071270;28;20482;-49
2021/08/07 03:50:27;;;;;;;8.53;5.00;;;16.40;99.90;;;;;;5071225;28;20451;-50
2021/08/07 03:52:54;;;;;;;6.73;6.00;;;16.40;99.90;;;;;;5058654;28;20513;-50
2021/08/07 03:55:21;;;;;;;7.00;5.90;;;16.20;99.90;;;;;;5051181;28;20937;-50
2021/08/07 03:57:52;;;;;;;7.47;6.00;;;16.00;99.90;;;;;;5051266;28;20493;-52
2021/08/07 04:00:22;;;;;;;5.33;4.83;;;15.90;99.90;;;;;;5051403;28;20471;-52
2021/08/07 04:02:49;;;;;;;7.47;6.13;;;16.10;99.90;;;;;;5050914;28;21046;-53
2021/08/07 04:05:16;;;;;;;7.77;5.90;;;16.10;99.90;;;;;;5052097;28;20851;-51
2021/08/07 04:07:43;;;;;;;6.67;5.40;;;16.00;99.90;;;;;;5072233;28;20471;-53
2021/08/07 04:10:12;;;;;;;5.70;5.20;;;16.10;99.90;;;;;;5072251;28;20508;-52
2021/08/07 04:12:39;;;;;;;7.43;5.37;;;16.20;99.90;;;;;;5075126;28;20478;-51
2021/08/07 04:15:08;;;;;;;5.20;4.70;;;16.30;99.90;;;;;;5074905;28;20489;-51
2021/08/07 04:17:39;;;;;;;6.40;5.80;;;16.30;99.90;;;;;;5074856;28;20810;-51
2021/08/07 04:20:08;;;;;;;7.03;5.23;;;16.30;99.90;;;;;;5074520;28;20507;-52
2021/08/07 04:22:36;;;;;;;8.20;5.90;;;16.30;99.90;;;;;;5073448;28;20485;-51
2021/08/07 04:25:03;;;;;;;9.90;8.83;;;16.20;99.90;;;;;;5054754;28;20806;-52
2021/08/07 04:27:30;;;;;;;8.77;7.87;;;16.40;99.90;;;;;;5054542;28;20483;-53
2021/08/07 04:29:57;;;;;;;8.67;7.77;;;16.50;99.90;;;;;;5071144;28;20442;-51
2021/08/07 04:32:24;;;;;;;7.97;7.17;;;16.50;99.90;;;;;;5073959;28;20536;-54
2021/08/07 04:34:52;;;;;;;8.60;7.10;;;16.50;99.90;;;;;;5074395;28;20476;-49
2021/08/07 04:37:20;;;;;;;10.93;8.23;;;16.40;99.90;;;;;;5074375;28;20447;-50
2021/08/07 04:39:47;;;;;;;7.70;6.50;;;16.30;99.90;;;;;;5069224;28;20455;-50
2021/08/07 04:42:16;;;;;;;9.00;7.20;;;16.20;99.90;;;;;;5053980;28;20501;-51
2021/08/07 04:44:43;;;;;;;7.87;6.93;;;16.20;99.90;;;;;;5054442;28;20452;-50
2021/08/07 04:47:11;;;;;;;7.83;6.63;;;16.30;99.90;;;;;;5054152;28;20452;-50
2021/08/07 04:49:38;;;;;;;5.80;5.30;;;16.30;99.90;;;;;;5054166;28;20474;-50
2021/08/07 04:52:07;;;;;;;7.63;6.00;;;16.50;99.90;;;;;;5054012;28;20451;-50
2021/08/07 04:54:34;;;;;;;7.57;6.37;;;16.60;99.90;;;;;;5054026;28;20501;-49
2021/08/07 04:57:01;;;;;;;7.23;5.73;;;17.00;99.90;;;;;;5055120;28;20448;-50
2021/08/07 04:59:28;;;;;;;5.77;5.17;;;17.50;99.90;;;;;;5053958;28;20436;-49
2021/08/07 05:01:55;;;;;;;7.27;5.07;;;18.00;99.90;;;;;;5053583;28;20509;-49
2021/08/07 05:04:22;;;;;;;6.13;5.37;;;18.20;99.90;;;;;;5054010;28;20517;-50
2021/08/07 05:06:49;;;;;;;9.73;5.20;;;18.20;99.90;;;;;;5053991;28;20453;-50
2021/08/07 05:09:18;;;;;;;5.63;4.57;;;18.20;99.90;;;;;;5053663;28;20537;-50
2021/08/07 05:11:45;;;;;;;6.50;4.53;;;18.30;99.90;;;;;;5060926;28;20525;-51
2021/08/07 05:14:11;;;;;;;6.33;4.50;;;18.30;99.90;;;;;;5064494;28;20468;-49
2021/08/07 05:16:39;;;;;;;7.20;4.70;;;18.30;99.90;;;;;;5053289;28;20451;-49
2021/08/07 05:19:06;;;;;;;5.13;4.53;;;18.50;99.90;;;;;;5053810;28;20451;-50
2021/08/07 05:21:33;;;;;;;5.37;4.87;;;18.90;99.90;;;;;;5053746;28;20452;-50
2021/08/07 05:24:00;;;;;;;4.63;4.23;;;19.80;99.90;;;;;;5069046;28;20471;-50
2021/08/07 05:26:28;;;;;;;5.80;4.47;;;20.80;99.90;;;;;;5073546;28;20447;-50
2021/08/07 05:28:55;;;;;;;8.10;4.27;;;21.70;99.90;;;;;;5072473;28;20474;-50
2021/08/07 05:31:22;;;;;;;4.47;4.07;;;22.40;99.90;;;;;;5072862;28;20451;-50
2021/08/07 05:33:49;;;;;;;5.00;3.70;;;22.50;99.90;;;;;;5072906;28;20544;-51
2021/08/07 05:36:16;;;;;;;3.97;3.40;;;22.10;99.90;;;;;;5073282;28;21009;-50
2021/08/07 05:38:43;;;;;;;5.13;3.67;;;22.10;99.90;;;;;;5072805;28;20455;-50
2021/08/07 05:41:10;;;;;;;6.63;3.70;;;22.30;99.90;;;;;;5073214;28;20479;-50
2021/08/07 05:43:39;;;;;;;3.73;3.20;;;22.50;99.90;;;;;;5053764;28;20472;-51
2021/08/07 05:46:06;;;;;;;3.90;3.57;;;22.50;99.90;;;;;;5053303;28;20513;-49
2021/08/07 05:48:33;;;;;;;4.63;3.60;;;22.60;99.90;;;;;;5068052;28;20482;-51
2021/08/07 05:51:01;;;;;;;4.77;3.80;;;22.40;99.90;;;;;;5073184;28;20537;-51
2021/08/07 05:53:28;;;;;;;5.53;3.73;;;22.30;99.90;;;;;;5072667;28;20475;-51
2021/08/07 05:55:55;;;;;;;6.40;4.00;;;22.50;99.90;;;;;;5072987;28;20955;-50
2021/08/07 05:58:22;;;;;;;5.40;4.13;;;22.80;99.90;;;;;;5066923;28;20478;-50
2021/08/07 06:00:52;;;;;;;4.33;3.80;;;23.10;99.90;;;;;;5070593;28;20497;-50
2021/08/07 06:03:19;;;;;;;3.80;3.50;;;23.60;99.90;;;;;;5072304;28;20524;-51
2021/08/07 06:05:46;;;;;;;3.93;3.53;;;24.00;99.90;;;;;;5072865;28;20866;-51
2021/08/07 06:08:13;;;;;;;6.60;3.93;;;24.30;99.90;;;;;;5071869;28;20482;-51
2021/08/07 06:10:40;;;;;;;4.87;4.30;;;24.60;99.90;;;;;;5072502;28;20451;-50
2021/08/07 06:13:07;;;;;;;6.03;3.50;;;25.30;99.90;;;;;;5072381;28;20474;-51
2021/08/07 06:15:34;;;;;;;4.50;3.67;;;25.60;99.90;;;;;;5064433;28;20824;-51
2021/08/07 06:18:02;;;;;;;5.83;3.77;;;26.00;99.90;;;;;;5057823;28;20443;-51
2021/08/07 06:20:30;;;;;;;4.13;3.83;;;26.40;99.90;;;;;;5068924;28;20450;-51
2021/08/07 06:22:57;;;;;;;5.17;3.83;;;26.30;99.90;;;;;;5072026;28;20466;-50
2021/08/07 06:25:24;;;;;;;4.17;3.67;;;26.00;99.90;;;;;;5072199;28;20450;-50
2021/08/07 06:27:54;;;;;;;4.03;3.63;;;26.00;99.90;;;;;;5071379;28;20447;-50
2021/08/07 06:30:21;;;;;;;4.83;3.50;;;25.80;99.90;;;;;;5072277;28;20541;-51
2021/08/07 06:32:48;;;;;;;5.20;3.50;;;25.60;99.90;;;;;;5056735;28;20537;-50
2021/08/07 06:35:17;;;;;;;3.47;3.27;;;25.80;99.90;;;;;;5052377;28;20509;-50
2021/08/07 06:37:44;;;;;;;3.93;3.40;;;25.70;99.90;;;;;;5056261;28;20451;-51
2021/08/07 06:40:13;;;;;;;3.57;3.20;;;25.90;99.90;;;;;;5072130;28;20450;-51
2021/08/07 06:42:40;;;;;;;4.63;3.17;;;25.70;99.90;;;;;;5071441;28;20474;-51
2021/08/07 06:45:08;;;;;;;5.50;3.10;;;25.70;99.90;;;;;;5071904;28;20504;-52
2021/08/07 06:47:36;;;;;;;4.83;3.23;;;26.00;99.90;;;;;;5071520;28;20525;-50
2021/08/07 06:50:04;;;;;;;4.90;3.23;;;26.00;99.90;;;;;;5070165;28;20478;-51
2021/08/07 06:52:33;;;;;;;4.57;3.57;;;25.40;99.90;;;;;;5071938;28;20492;-51
2021/08/07 06:55:00;;;;;;;3.63;3.30;;;24.60;99.90;;;;;;5071516;28;20475;-51
2021/08/07 06:57:27;;;;;;;4.10;3.17;;;23.90;99.90;;;;;;5071799;28;20450;-51
2021/08/07 06:59:54;;;;;;;3.73;3.43;;;23.70;99.90;;;;;;5071572;28;20500;-51
2021/08/07 07:02:21;;;;;;;4.57;3.50;;;23.70;99.90;;;;;;5070363;28;20474;-50
2021/08/07 07:04:49;;;;;;;3.27;2.97;;;23.40;99.90;;;;;;5065907;28;20451;-51
2021/08/07 07:07:16;;;;;;;4.50;3.73;;;23.20;99.90;;;;;;5071692;28;20495;-50
2021/08/07 07:09:45;;;;;;;3.70;3.37;;;22.90;99.90;;;;;;5071224;28;20598;-51
2021/08/07 07:12:16;;;;;;;3.60;3.30;;;22.50;99.90;;;;;;5071329;28;20459;-51
2021/08/07 07:14:43;;;;;;;3.83;3.47;;;22.20;99.90;;;;;;5071610;28;20966;-51
2021/08/07 07:17:10;;;;;;;5.87;3.53;;;21.90;99.90;;;;;;5071599;28;20447;-51
2021/08/07 07:19:38;;;;;;;3.57;3.27;;;21.70;99.90;;;;;;5070644;28;20497;-51
2021/08/07 07:22:05;;;;;;;5.80;3.73;;;21.40;99.90;;;;;;5071206;28;20931;-51
2021/08/07 07:24:32;;;;;;;5.73;3.60;;;21.70;99.90;;;;;;5071429;28;20500;-51
2021/08/07 07:27:01;;;;;;;4.63;3.70;;;22.10;99.90;;;;;;5071504;28;20454;-51
2021/08/07 07:29:28;;;;;;;5.50;3.90;;;22.60;99.90;;;;;;5070781;28;20573;-51
2021/08/07 07:31:55;;;;;;;4.70;4.10;;;22.90;99.90;;;;;;5071066;28;20515;-50
2021/08/07 07:34:22;;;;;;;4.53;3.83;;;23.10;99.90;;;;;;5065622;28;20575;-50
2021/08/07 07:36:49;;;;;;;5.17;3.67;;;23.20;99.90;;;;;;5054389;28;20446;-50
2021/08/07 07:39:16;;;;;;;6.60;5.50;;;23.30;99.90;;;;;;5070962;28;20508;-51
2021/08/07 07:41:44;;;;;;;5.50;4.10;;;23.50;99.90;;;;;;5067748;28;20450;-50
2021/08/07 07:44:12;;;;;;;5.30;3.77;;;23.60;99.90;;;;;;5065571;28;20486;-51
2021/08/07 07:46:39;;;;;;;4.13;3.73;;;23.90;99.90;;;;;;5069326;28;20551;-51
2021/08/07 07:49:06;;;;;;;4.47;3.50;;;24.40;99.90;;;;;;5066507;28;20548;-51
2021/08/07 07:51:33;;;;;;;5.27;3.80;;;24.60;99.90;;;;;;5069748;28;20459;-51
2021/08/07 07:54:00;;;;;;;3.93;3.23;;;24.50;99.90;;;;;;5062931;28;20502;-51
2021/08/07 07:56:27;;;;;;;4.73;3.57;;;24.40;99.90;;;;;;5056292;28;20816;-51
2021/08/07 07:58:54;;;;;;;4.07;3.70;;;24.60;99.90;;;;;;5062533;28;20512;-51
2021/08/07 08:01:23;;;;;;;5.33;4.03;;;24.60;99.90;;;;;;5069879;28;20457;-50
2021/08/07 08:03:50;;;;;;;4.60;4.20;;;24.60;99.90;;;;;;5067206;28;20482;-50
2021/08/07 08:06:17;;;;;;;4.20;3.80;;;24.60;99.90;;;;;;5064218;28;21018;-51
2021/08/07 08:08:44;;;;;;;4.10;3.80;;;24.40;99.90;;;;;;5070682;28;20536;-51
2021/08/07 08:11:11;;;;;;;4.07;3.70;;;24.40;99.90;;;;;;5067282;28;20527;-52
2021/08/07 08:13:38;;;;;;;4.03;3.63;;;24.50;99.90;;;;;;5068893;28;21052;-50
2021/08/07 08:16:06;;;;;;;4.23;3.80;;;24.30;99.90;;;;;;5064077;28;20462;-51
2021/08/07 08:18:34;;;;;;;7.13;4.00;;;24.30;99.90;;;;;;5072630;28;20466;-51
2021/08/07 08:21:01;;;;;;;4.13;3.70;;;24.20;99.90;;;;;;5067534;28;20450;-51
2021/08/07 08:23:28;;;;;;;3.80;3.50;;;24.00;99.90;;;;;;5072129;28;20514;-50
2021/08/07 08:25:55;;;;;;;3.47;3.20;;;24.00;99.90;;;;;;5066121;28;20454;-50
2021/08/07 08:28:22;;;;;;;4.23;3.77;;;23.80;99.90;;;;;;5070915;28;20541;-50
2021/08/07 08:30:50;;;;;;;4.23;3.90;;;23.80;99.90;;;;;;5062072;28;20952;-51
2021/08/07 08:33:17;;;;;;;4.17;3.80;;;23.80;99.90;;;;;;5069201;28;20902;-51
2021/08/07 08:35:46;;;;;;;4.60;3.40;;;23.80;99.90;;;;;;5071647;28;20956;-51
2021/08/07 08:38:14;;;;;;;6.03;4.00;;;23.60;99.90;;;;;;5067658;28;20873;-49
2021/08/07 08:40:41;;;;;;;7.33;3.50;;;23.50;99.90;;;;;;5046858;28;20870;-50
2021/08/07 08:43:08;;;;;;;7.53;4.70;;;23.50;99.90;;;;;;5050083;28;20494;-50
2021/08/07 08:45:35;;;;;;;4.33;3.90;;;23.40;99.90;;;;;;5054499;28;20467;-51
2021/08/07 08:48:03;;;;;;;4.13;3.80;;;23.40;99.90;;;;;;5067241;28;20447;-51
2021/08/07 08:50:31;;;;;;;3.57;3.27;;;23.30;99.90;;;;;;5057523;28;20487;-51
2021/08/07 08:53:00;;;;;;;5.83;4.03;;;23.30;99.90;;;;;;5063948;28;20532;-50
2021/08/07 08:55:27;;;;;;;5.10;3.30;;;23.50;99.90;;;;;;5065630;28;20819;-52
2021/08/07 08:57:54;;;;;;;3.97;3.57;;;23.70;99.90;;;;;;5056580;28;20464;-51
2021/08/07 09:00:22;;;;;;;3.87;3.50;;;24.00;99.90;;;;;;5062700;28;21054;-51
2021/08/07 09:02:49;;;;;;;4.30;3.90;;;24.30;99.90;;;;;;5063150;28;20482;-51
2021/08/07 09:05:16;;;;;;;4.20;3.80;;;24.60;99.90;;;;;;5072184;28;20462;-51
2021/08/07 09:07:45;;;;;;;5.20;3.97;;;24.70;99.90;;;;;;5071792;28;20451;-50
2021/08/07 09:10:13;;;;;;;4.20;3.67;;;24.80;99.90;;;;;;5053496;28;20582;-50
2021/08/07 09:12:43;;;;;;;4.70;3.70;;;24.80;99.90;;;;;;5062073;28;20567;-51
2021/08/07 09:15:32;;;;;;;5.50;3.77;;;24.70;99.90;;;;;;5065989;28;21038;-51
2021/08/07 09:18:14;;;;;;;3.70;3.40;;;24.40;99.90;;;;;;5053569;28;20868;-51
2021/08/07 09:20:43;;;;;;;9.70;3.73;;;24.50;99.90;;;;;;5063733;28;20493;-51
2021/08/07 09:23:11;;;;;;;7.60;4.07;;;24.50;99.90;;;;;;5071195;28;20483;-51
2021/08/07 09:25:40;;;;;;;6.37;4.47;;;24.70;99.90;;;;;;5064953;28;20524;-51
2021/08/07 09:28:08;;;;;;;5.00;3.80;;;25.30;99.90;;;;;;5065208;28;20464;-51
2021/08/07 09:30:38;;;;;;;5.20;4.40;;;26.10;99.90;;;;;;5063976;28;20495;-51
2021/08/07 09:33:08;;;;;;;8.67;4.37;;;26.60;99.90;;;;;;5085277;22;20493;-58
2021/08/07 09:35:37;;;;;;;6.23;3.80;;;27.00;99.90;;;;;;5093273;28;20458;-59
2021/08/07 09:38:12;;;;;;;8.47;3.70;;;27.20;99.90;;;;;;5079939;28;20470;-59
2021/08/07 09:40:46;;;;;;;4.93;4.30;;;27.90;99.90;;;;;;5083047;28;20458;-59
2021/08/07 09:43:15;;;;;;;4.30;3.70;;;28.10;99.90;;;;;;5091065;28;20487;-59
2021/08/07 09:45:42;;;;;;;5.00;3.90;;;28.00;99.90;;;;;;5090825;28;20893;-59
2021/08/07 09:48:11;;;;;;;3.80;3.50;;;28.40;99.90;;;;;;5093387;28;20443;-59
2021/08/07 09:50:39;;;;;;;3.57;3.27;;;28.40;99.90;;;;;;5090802;28;20496;-59
2021/08/07 09:53:17;;;;;;;5.33;3.67;;;29.00;99.90;;;;;;5091900;28;20490;-59
2021/08/07 09:56:03;;;;;;;3.00;2.70;;;29.50;99.90;;;;;;5092044;28;21001;-59
2021/08/07 09:58:30;;;;;;;3.70;3.40;;;29.10;99.90;;;;;;5087901;28;20469;-60
2021/08/07 10:00:58;;;;;;;5.80;3.67;;;29.00;99.90;;;;;;5092507;28;20952;-61
2021/08/07 10:03:27;;;;;;;4.33;3.40;;;28.50;99.90;;;;;;5079033;28;20466;-60
2021/08/07 10:05:55;;;;;;;5.80;4.03;;;28.40;99.90;;;;;;5072912;28;20866;-61
2021/08/07 10:08:22;;;;;;;3.07;2.87;;;28.40;99.90;;;;;;5072592;28;20451;-60
2021/08/07 10:10:52;;;;;;;4.30;3.13;;;28.80;99.90;;;;;;5072417;28;20478;-60
2021/08/07 10:13:21;;;;;;;3.73;3.43;;;29.00;99.90;;;;;;5076874;28;20879;-61
2021/08/07 10:15:48;;;;;;;3.87;3.23;;;29.10;99.90;;;;;;5092658;28;21017;-60
2021/08/07 10:18:17;;;;;;;3.03;2.80;;;29.00;99.90;;;;;;5092912;28;20545;-61
2021/08/07 10:20:44;;;;;;;3.30;3.10;;;29.50;99.90;;;;;;5072399;28;20851;-61
2021/08/07 10:23:12;;;;;;;5.73;3.10;;;29.50;99.90;;;;;;5072206;28;20577;-61
2021/08/07 10:25:45;;;;;;;3.10;2.90;;;29.90;99.90;;;;;;5072412;28;20447;-61
2021/08/07 10:28:13;;;;;;;7.30;2.70;;;30.00;99.90;;;;;;5072702;28;20542;-61
2021/08/07 10:30:44;;;;;;;4.83;4.07;;;29.30;99.90;;;;;;5085715;28;21020;-61
2021/08/07 10:33:12;;;;;;;7.23;3.87;;;28.00;99.90;;;;;;5091489;28;20482;-60
2021/08/07 10:35:39;;;;;;;4.10;3.80;;;27.00;99.90;;;;;;5092219;28;21098;-60
2021/08/07 10:38:07;;;;;;;5.17;4.67;;;26.70;99.90;;;;;;5092342;28;20940;-60
2021/08/07 10:40:34;;;;;;;5.30;4.80;;;25.30;99.90;;;;;;5072181;28;20527;-59
2021/08/07 10:43:01;;;;;;;7.07;4.30;;;24.60;99.90;;;;;;5089957;28;20990;-60
2021/08/07 10:45:29;;;;;;;6.80;4.40;;;24.30;99.90;;;;;;5092298;28;20477;-60
2021/08/07 10:47:57;;;;;;;5.00;4.50;;;24.50;99.90;;;;;;5092073;28;20458;-60
2021/08/07 10:50:39;;;;;;;4.80;4.30;;;24.40;99.90;;;;;;5088493;28;20521;-60
2021/08/07 10:53:22;;;;;;;5.20;4.70;;;24.30;99.90;;;;;;5071055;28;20233;-60
2021/08/07 10:55:51;;;;;;;4.60;4.10;;;24.10;99.90;;;;;;5076899;28;20458;-60
2021/08/07 10:58:39;;;;;;;5.53;4.20;;;23.80;99.90;;;;;;5091530;28;20473;-60
2021/08/07 11:01:29;;;;;;;6.53;3.87;;;23.80;99.90;;;;;;5071663;28;20537;-60
2021/08/07 11:04:15;;;;;;;6.77;5.30;;;24.00;99.90;;;;;;5091002;28;20473;-59
2021/08/07 11:06:48;;;;;;;4.27;3.97;;;23.70;99.90;;;;;;5090943;28;20810;-60
2021/08/07 11:09:21;;;;;;;4.70;4.30;;;23.60;99.90;;;;;;5091379;28;21005;-59
2021/08/07 11:11:49;;;;;;;5.67;4.80;;;23.60;99.90;;;;;;5090799;28;20450;-59
2021/08/07 11:14:47;;;;;;;4.97;4.50;;;23.30;99.90;;;;;;5090896;28;20894;-59
2021/08/07 11:17:35;;;;;;;7.17;5.77;;;23.00;99.90;;;;;;5090917;28;20445;-59
2021/08/07 11:20:07;;;;;;;7.10;5.17;;;22.70;99.90;;;;;;5091709;28;20476;-59
2021/08/07 11:23:18;;;;;;;7.07;4.30;;;22.50;99.90;;;;;;5103300;28;20445;-59
2021/08/07 11:25:58;;;;;;;5.70;5.20;;;22.30;99.90;;;;;;5091371;28;20453;-58
2021/08/07 11:28:25;;;;;;;6.90;5.17;;;22.10;99.90;;;;;;5091750;28;20449;-58
2021/08/07 11:31:14;;;;;;;7.30;4.90;;;22.20;99.90;;;;;;5091517;28;20488;-59
2021/08/07 11:33:41;;;;;;;7.27;5.33;;;22.70;99.90;;;;;;5091123;28;20479;-59
2021/08/07 11:36:18;;;;;;;4.77;4.30;;;23.10;99.90;;;;;;5091155;28;20450;-59
2021/08/07 11:39:05;;;;;;;5.17;4.50;;;22.80;99.90;;;;;;5083726;28;20959;-58
2021/08/07 11:41:39;;;;;;;4.13;3.60;;;22.30;99.90;;;;;;5071321;28;20465;-59
2021/08/07 11:44:07;;;;;;;7.97;4.87;;;22.50;99.90;;;;;;5070825;28;20550;-60
2021/08/07 11:46:40;;;;;;;8.63;4.83;;;22.30;99.90;;;;;;5071124;28;20439;-60
2021/08/07 11:49:09;;;;;;;7.90;4.33;;;22.10;99.90;;;;;;5071706;28;20447;-59
2021/08/07 11:51:38;;;;;;;4.33;3.93;;;22.30;99.90;;;;;;5082326;28;21006;-60
2021/08/07 11:54:06;;;;;;;5.60;4.40;;;22.30;99.90;;;;;;5090494;28;20473;-60
2021/08/07 11:56:37;;;;;;;6.43;4.93;;;22.20;99.90;;;;;;5091032;28;20799;-60
2021/08/07 11:59:05;;;;;;;9.13;4.67;;;21.90;99.90;;;;;;5091501;28;20473;-60
2021/08/07 12:01:37;;;;;;;7.50;4.90;;;21.70;99.90;;;;;;5091777;28;20533;-60
2021/08/07 12:04:05;;;;;;;5.77;4.97;;;21.70;99.90;;;;;;5090760;28;20500;-59
2021/08/07 12:06:34;;;;;;;6.00;5.00;;;21.80;99.90;;;;;;5090004;28;20454;-60
2021/08/07 12:09:09;;;;;;;5.73;4.90;;;21.60;99.90;;;;;;5071266;28;20952;-59
2021/08/07 12:11:37;;;;;;;6.20;5.60;;;21.70;99.90;;;;;;5084690;28;20513;-59
2021/08/07 12:14:04;;;;;;;6.90;5.43;;;21.90;99.90;;;;;;5090955;28;20474;-60
2021/08/07 12:16:33;;;;;;;6.93;4.60;;;22.20;99.90;;;;;;5091185;28;20511;-60
2021/08/07 12:19:04;;;;;;;4.80;4.30;;;22.30;99.90;;;;;;5091409;28;20507;-60
2021/08/07 12:21:34;;;;;;;9.97;4.90;;;22.20;99.90;;;;;;5083074;28;20443;-60
2021/08/07 12:24:05;;;;;;;4.87;4.43;;;22.00;99.90;;;;;;5070966;28;20474;-60
2021/08/07 12:26:38;;;;;;;9.00;4.30;;;22.30;99.90;;;;;;5072152;28;20454;-60
2021/08/07 12:29:07;;;;;;;7.10;4.20;;;22.20;99.90;;;;;;5074431;28;20940;-60
2021/08/07 12:31:39;;;;;;;8.00;4.50;;;22.30;99.90;;;;;;5074601;28;20486;-60
2021/08/07 12:34:12;;;;;;;6.10;3.67;;;22.70;99.90;;;;;;5074036;28;21065;-60
2021/08/07 12:36:39;;;;;;;4.83;4.20;;;22.80;99.90;;;;;;5090702;28;20442;-60
2021/08/07 12:39:08;;;;;;;5.67;3.77;;;22.80;99.90;;;;;;5094644;28;20526;-59
2021/08/07 12:41:35;;;;;;;4.50;3.27;;;22.70;99.90;;;;;;5094461;28;21184;-59
2021/08/07 12:44:02;;;;;;;4.13;3.50;;;23.00;99.90;;;;;;5094244;28;20523;-60
2021/08/07 12:46:29;;;;;;;8.13;4.37;;;23.00;99.90;;;;;;5094457;28;20992;-59
2021/08/07 12:48:59;;;;;;;4.80;3.63;;;22.90;99.90;;;;;;5094428;28;20450;-59
2021/08/07 12:51:30;;;;;;;3.67;3.37;;;22.40;99.90;;;;;;5076854;28;20543;-59
2021/08/07 12:53:59;;;;;;;4.40;3.53;;;22.50;99.90;;;;;;5094247;28;20579;-59
2021/08/07 12:56:29;;;;;;;6.07;4.60;;;22.70;99.90;;;;;;5093992;28;20449;-59